createdAt,value
2022-08-05T00:00:23.629Z,62.05
2022-08-05T00:01:27.634Z,62.05
2022-08-05T00:03:23.738Z,61.85
2022-08-05T00:04:23.727Z,61.85
2022-08-05T00:06:01.458Z,62.15
2022-08-05T00:06:32.434Z,62.15
2022-08-05T00:08:00.047Z,61.95
2022-08-05T00:09:23.912Z,61.27
2022-08-05T00:10:27.006Z,61.95
2022-08-05T00:11:30.262Z,61.95
2022-08-05T00:12:24.024Z,61.85
2022-08-05T00:13:38.319Z,62.24
2022-08-05T00:14:29.112Z,62.05
2022-08-05T00:15:56.451Z,61.85
2022-08-05T00:16:35.920Z,61.95
2022-08-05T00:17:24.203Z,61.85
2022-08-05T00:18:24.601Z,61.85
2022-08-05T00:19:24.757Z,62.24
2022-08-05T00:20:28.970Z,61.76
2022-08-05T00:21:24.359Z,62.05
2022-08-05T00:22:24.440Z,61.95
2022-08-05T00:23:44.676Z,61.36
2022-08-05T00:24:30.978Z,62.05
2022-08-05T00:25:24.551Z,61.85
2022-08-05T00:26:24.540Z,61.85
2022-08-05T00:27:35.796Z,61.66
2022-08-05T00:28:29.713Z,62.15
2022-08-05T00:29:25.401Z,61.69
2022-08-05T00:30:29.230Z,61.46
2022-08-05T00:31:41.465Z,61.36
2022-08-05T00:32:25.902Z,61.27
2022-08-05T00:34:53.259Z,61.36
2022-08-05T00:34:55.704Z,62.15
2022-08-05T00:35:24.889Z,62.05
2022-08-05T00:37:12.979Z,61.79
2022-08-05T00:37:25.518Z,61.36
2022-08-05T00:38:28.750Z,62.08
2022-08-05T00:39:25.068Z,61.27
2022-08-05T00:40:27.299Z,61.36
2022-08-05T00:41:25.180Z,62.15
2022-08-05T00:42:31.799Z,62.05
2022-08-05T00:43:25.175Z,61.56
2022-08-05T00:44:30.996Z,61.56
2022-08-05T00:45:37.987Z,62.05
2022-08-05T00:46:42.810Z,61.85
2022-08-05T00:47:25.318Z,61.95
2022-08-05T00:48:31.502Z,61.85
2022-08-05T00:50:25.782Z,61.76
2022-08-05T00:51:51.013Z,62.15
2022-08-05T00:52:28.598Z,61.95
2022-08-05T00:54:00.900Z,62.05
2022-08-05T00:54:28.205Z,61.95
2022-08-05T00:55:34.209Z,61.95
2022-08-05T00:58:27.360Z,62.05
2022-08-05T00:59:26.059Z,62.24
2022-08-05T01:00:26.250Z,62.15
2022-08-05T01:01:42.613Z,61.85
2022-08-05T01:02:25.873Z,62.05
2022-08-05T01:03:30.956Z,62.05
2022-08-05T01:04:26.819Z,62.24
2022-08-05T01:05:27.365Z,62.24
2022-08-05T01:06:32.415Z,62.15
2022-08-05T01:07:31.698Z,62.05
2022-08-05T01:09:26.139Z,62.44
2022-08-05T01:10:26.173Z,62.24
2022-08-05T01:11:33.494Z,62.34
2022-08-05T01:12:29.804Z,62.24
2022-08-05T01:13:27.381Z,61.95
2022-08-05T01:14:27.856Z,62.53
2022-08-05T01:15:36.314Z,62.53
2022-08-05T01:16:26.646Z,62.15
2022-08-05T01:17:26.572Z,62.15
2022-08-05T01:18:27.474Z,62.15
2022-08-05T01:19:46.331Z,62.31
2022-08-05T01:20:26.966Z,62.02
2022-08-05T01:21:26.579Z,62.60
2022-08-05T01:22:28.066Z,62.60
2022-08-05T01:23:34.575Z,62.99
2022-08-05T01:24:26.688Z,62.79
2022-08-05T01:25:40.793Z,62.89
2022-08-05T01:26:26.761Z,62.70
2022-08-05T01:27:27.104Z,62.99
2022-08-05T01:28:26.884Z,63.45
2022-08-05T01:29:26.873Z,63.35
2022-08-05T01:30:34.844Z,63.15
2022-08-05T01:31:26.946Z,63.18
2022-08-05T01:32:27.724Z,63.09
2022-08-05T01:33:27.018Z,63.09
2022-08-05T01:34:27.194Z,63.28
2022-08-05T01:35:50.864Z,63.09
2022-08-05T01:38:29.242Z,63.09
2022-08-05T01:39:46.685Z,63.18
2022-08-05T01:40:27.930Z,63.25
2022-08-05T01:41:27.310Z,63.38
2022-08-05T01:42:27.351Z,63.09
2022-08-05T01:43:27.389Z,62.99
2022-08-05T01:44:35.262Z,62.79
2022-08-05T01:45:27.458Z,62.70
2022-08-05T01:46:43.051Z,63.15
2022-08-05T01:47:38.908Z,62.57
2022-08-05T01:48:27.655Z,63.15
2022-08-05T01:49:27.606Z,63.06
2022-08-05T01:50:28.808Z,63.35
2022-08-05T01:51:29.387Z,63.35
2022-08-05T01:52:27.717Z,63.06
2022-08-05T01:53:54.427Z,63.35
2022-08-05T01:54:27.791Z,63.74
2022-08-05T01:55:27.823Z,63.74
2022-08-05T01:58:12.869Z,63.54
2022-08-05T01:58:29.231Z,63.64
2022-08-05T01:59:27.984Z,63.51
2022-08-05T02:00:30.395Z,63.61
2022-08-05T02:01:28.191Z,64.00
2022-08-05T02:03:31.805Z,64.36
2022-08-05T02:04:28.455Z,64.45
2022-08-05T02:05:28.735Z,64.65
2022-08-05T02:06:38.431Z,64.94
2022-08-05T02:09:28.406Z,65.30
2022-08-05T02:10:28.777Z,65.85
2022-08-05T02:11:33.548Z,66.34
2022-08-05T02:12:28.493Z,66.44
2022-08-05T02:13:28.479Z,66.05
2022-08-05T02:14:28.517Z,66.93
2022-08-05T02:15:33.376Z,66.93
2022-08-05T02:16:29.038Z,66.73
2022-08-05T02:18:28.725Z,66.44
2022-08-05T02:18:34.263Z,66.63
2022-08-05T02:19:28.695Z,66.73
2022-08-05T02:20:28.793Z,66.93
2022-08-05T02:21:28.770Z,66.34
2022-08-05T02:22:28.808Z,66.93
2022-08-05T02:23:28.942Z,67.21
2022-08-05T02:24:28.878Z,67.38
2022-08-05T02:25:33.461Z,67.18
2022-08-05T02:26:28.948Z,67.28
2022-08-05T02:27:29.837Z,67.02
2022-08-05T02:29:59.152Z,67.76
2022-08-05T02:30:29.903Z,67.96
2022-08-05T02:31:29.163Z,68.05
2022-08-05T02:32:31.645Z,68.44
2022-08-05T02:33:35.903Z,68.25
2022-08-05T02:34:29.284Z,67.96
2022-08-05T02:35:33.394Z,68.15
2022-08-05T02:36:31.317Z,68.35
2022-08-05T02:37:29.345Z,68.44
2022-08-05T02:38:35.540Z,68.15
2022-08-05T02:39:29.761Z,68.09
2022-08-05T02:40:29.450Z,68.15
2022-08-05T02:41:43.214Z,67.60
2022-08-05T02:42:34.269Z,67.60
2022-08-05T02:43:29.557Z,67.70
2022-08-05T02:44:29.595Z,67.90
2022-08-05T02:45:52.006Z,67.90
2022-08-05T02:46:29.667Z,68.09
2022-08-05T02:47:58.482Z,67.99
2022-08-05T02:48:29.942Z,67.90
2022-08-05T02:49:35.974Z,68.38
2022-08-05T02:50:29.922Z,68.15
2022-08-05T02:52:03.026Z,68.05
2022-08-05T02:52:30.900Z,67.96
2022-08-05T02:53:39.627Z,68.44
2022-08-05T02:54:35.958Z,68.15
2022-08-05T02:55:54.814Z,68.15
2022-08-05T02:56:30.075Z,68.09
2022-08-05T02:58:12.296Z,67.90
2022-08-05T02:58:30.505Z,67.80
2022-08-05T02:59:30.132Z,67.21
2022-08-05T03:00:30.172Z,67.31
2022-08-05T03:01:30.317Z,67.41
2022-08-05T03:02:30.239Z,66.93
2022-08-05T03:03:33.915Z,67.02
2022-08-05T03:04:30.388Z,66.53
2022-08-05T03:06:54.001Z,66.47
2022-08-05T03:06:55.753Z,66.76
2022-08-05T03:08:00.192Z,66.56
2022-08-05T03:08:30.448Z,66.66
2022-08-05T03:09:37.438Z,66.37
2022-08-05T03:11:57.301Z,66.08
2022-08-05T03:12:30.599Z,66.21
2022-08-05T03:13:52.173Z,66.21
2022-08-05T03:14:30.678Z,66.21
2022-08-05T03:15:30.743Z,66.21
2022-08-05T03:16:31.771Z,65.92
2022-08-05T03:17:30.769Z,66.02
2022-08-05T03:18:30.892Z,65.63
2022-08-05T03:19:34.439Z,65.72
2022-08-05T03:20:30.883Z,65.92
2022-08-05T03:21:33.214Z,66.11
2022-08-05T03:22:32.202Z,65.23
2022-08-05T03:23:31.237Z,65.63
2022-08-05T03:25:33.268Z,65.33
2022-08-05T03:26:32.501Z,65.33
2022-08-05T03:27:59.282Z,65.23
2022-08-05T03:28:31.163Z,65.43
2022-08-05T03:29:45.357Z,66.02
2022-08-05T03:30:34.245Z,65.43
2022-08-05T03:31:57.417Z,65.82
2022-08-05T03:33:42.261Z,65.23
2022-08-05T03:34:31.392Z,65.53
2022-08-05T03:35:33.706Z,65.43
2022-08-05T03:36:31.752Z,65.53
2022-08-05T03:37:31.493Z,65.14
2022-08-05T03:38:33.351Z,65.82
2022-08-05T03:39:35.246Z,65.53
2022-08-05T03:40:32.610Z,65.53
2022-08-05T03:41:33.182Z,65.53
2022-08-05T03:42:41.613Z,65.92
2022-08-05T03:44:08.401Z,65.92
2022-08-05T03:44:31.738Z,65.72
2022-08-05T03:45:31.774Z,65.82
2022-08-05T03:46:32.592Z,65.66
2022-08-05T03:47:35.493Z,65.95
2022-08-05T03:48:35.323Z,65.66
2022-08-05T03:49:51.887Z,65.63
2022-08-05T03:50:31.957Z,65.85
2022-08-05T03:52:38.609Z,65.82
2022-08-05T03:52:38.671Z,65.85
2022-08-05T03:55:00.220Z,65.07
2022-08-05T03:55:50.016Z,65.36
2022-08-05T03:56:35.129Z,65.46
2022-08-05T03:57:41.667Z,65.17
2022-08-05T03:58:32.243Z,65.07
2022-08-05T03:59:47.527Z,64.97
2022-08-05T04:00:32.567Z,64.87
2022-08-05T04:01:32.519Z,64.87
2022-08-05T04:02:39.168Z,64.87
2022-08-05T04:03:32.420Z,64.87
2022-08-05T04:04:32.479Z,64.87
2022-08-05T04:05:33.406Z,65.17
2022-08-05T04:06:32.531Z,65.07
2022-08-05T04:07:33.004Z,65.07
2022-08-05T04:08:36.710Z,65.07
2022-08-05T04:09:32.644Z,65.26
2022-08-05T04:10:37.637Z,65.17
2022-08-05T04:13:49.676Z,65.17
2022-08-05T04:14:33.069Z,65.17
2022-08-05T04:15:36.416Z,64.97
2022-08-05T04:16:32.890Z,65.17
2022-08-05T04:17:36.435Z,65.17
2022-08-05T04:18:34.459Z,64.78
2022-08-05T04:19:33.002Z,65.17
2022-08-05T04:20:33.041Z,64.87
2022-08-05T04:22:08.062Z,64.87
2022-08-05T04:22:33.106Z,65.07
2022-08-05T04:24:01.112Z,64.97
2022-08-05T04:24:33.213Z,64.87
2022-08-05T04:25:56.929Z,64.87
2022-08-05T04:26:33.250Z,64.87
2022-08-05T04:27:43.632Z,64.97
2022-08-05T04:28:33.574Z,64.87
2022-08-05T04:29:33.361Z,64.87
2022-08-05T04:30:33.396Z,64.59
2022-08-05T04:31:38.774Z,65.17
2022-08-05T04:32:33.595Z,64.78
2022-08-05T04:34:17.343Z,64.78
2022-08-05T04:36:16.641Z,64.78
2022-08-05T04:36:46.163Z,64.72
2022-08-05T04:37:41.893Z,64.69
2022-08-05T04:38:39.575Z,64.59
2022-08-05T04:39:35.228Z,64.69
2022-08-05T04:40:33.760Z,64.72
2022-08-05T04:41:37.670Z,64.59
2022-08-05T04:42:34.130Z,64.69
2022-08-05T04:43:33.867Z,64.72
2022-08-05T04:45:49.078Z,64.78
2022-08-05T04:46:33.975Z,64.59
2022-08-05T04:47:42.740Z,64.72
2022-08-05T04:48:34.308Z,65.26
2022-08-05T04:49:39.226Z,65.26
2022-08-05T04:50:34.473Z,65.17
2022-08-05T04:51:34.157Z,65.17
2022-08-05T04:52:34.412Z,65.17
2022-08-05T04:53:35.405Z,65.07
2022-08-05T04:56:11.968Z,65.17
2022-08-05T04:56:37.184Z,65.26
2022-08-05T04:57:37.216Z,65.17
2022-08-05T04:58:34.413Z,65.26
2022-08-05T04:59:38.861Z,65.17
2022-08-05T05:02:35.623Z,65.07
2022-08-05T05:02:41.411Z,65.01
2022-08-05T05:03:42.201Z,65.26
2022-08-05T05:04:34.629Z,64.81
2022-08-05T05:05:34.666Z,64.97
2022-08-05T05:07:35.686Z,64.91
2022-08-05T05:08:35.022Z,65.20
2022-08-05T05:09:34.808Z,64.78
2022-08-05T05:10:34.855Z,64.62
2022-08-05T05:11:48.526Z,64.62
2022-08-05T05:12:36.850Z,64.72
2022-08-05T05:14:36.243Z,64.91
2022-08-05T05:15:57.488Z,64.81
2022-08-05T05:16:35.064Z,64.72
2022-08-05T05:17:56.566Z,64.72
2022-08-05T05:18:35.140Z,64.81
2022-08-05T05:19:37.194Z,64.81
2022-08-05T05:21:35.289Z,65.01
2022-08-05T05:22:35.578Z,64.81
2022-08-05T05:23:39.184Z,64.81
2022-08-05T05:24:58.063Z,64.52
2022-08-05T05:25:40.957Z,64.42
2022-08-05T05:26:35.424Z,64.42
2022-08-05T05:27:41.588Z,64.52
2022-08-05T05:28:42.684Z,64.52
2022-08-05T05:30:03.646Z,64.32
2022-08-05T05:30:35.572Z,64.52
2022-08-05T05:32:15.947Z,64.42
2022-08-05T05:33:17.378Z,64.23
2022-08-05T05:34:18.993Z,64.32
2022-08-05T05:35:19.862Z,64.62
2022-08-05T05:36:16.094Z,64.72
2022-08-05T05:37:16.237Z,64.72
2022-08-05T05:38:22.388Z,64.72
2022-08-05T05:39:16.227Z,64.62
2022-08-05T05:40:16.237Z,64.52
2022-08-05T05:41:16.406Z,64.62
2022-08-05T05:42:16.356Z,64.23
2022-08-05T05:43:16.345Z,64.42
2022-08-05T05:46:18.140Z,64.52
2022-08-05T05:47:21.545Z,64.52
2022-08-05T05:48:16.531Z,64.42
2022-08-05T05:49:23.074Z,64.52
2022-08-05T05:50:16.602Z,64.52
2022-08-05T05:52:28.746Z,64.52
2022-08-05T05:53:21.436Z,64.72
2022-08-05T05:54:16.743Z,64.72
2022-08-05T05:55:16.786Z,64.72
2022-08-05T05:56:31.429Z,64.23
2022-08-05T05:57:19.227Z,64.62
2022-08-05T05:58:16.891Z,64.72
2022-08-05T05:59:17.230Z,64.72
2022-08-05T06:00:16.959Z,64.32
2022-08-05T06:01:16.999Z,64.52
2022-08-05T06:02:17.034Z,64.62
2022-08-05T06:03:40.225Z,64.72
2022-08-05T06:04:17.136Z,64.52
2022-08-05T06:05:17.331Z,64.42
2022-08-05T06:06:17.482Z,64.42
2022-08-05T06:07:17.219Z,64.42
2022-08-05T06:08:32.539Z,64.32
2022-08-05T06:09:24.910Z,64.42
2022-08-05T06:10:17.325Z,64.72
2022-08-05T06:11:17.363Z,64.32
2022-08-05T06:12:17.407Z,64.52
2022-08-05T06:13:17.685Z,64.42
2022-08-05T06:14:17.472Z,64.13
2022-08-05T06:15:24.065Z,64.62
2022-08-05T06:16:28.661Z,64.62
2022-08-05T06:17:31.973Z,64.42
2022-08-05T06:18:17.619Z,64.62
2022-08-05T06:19:26.084Z,64.62
2022-08-05T06:20:18.894Z,64.23
2022-08-05T06:21:18.787Z,64.23
2022-08-05T06:22:17.764Z,64.23
2022-08-05T06:23:17.802Z,63.93
2022-08-05T06:24:17.838Z,64.23
2022-08-05T06:25:25.339Z,64.03
2022-08-05T06:26:21.242Z,64.13
2022-08-05T06:28:11.644Z,64.32
2022-08-05T06:28:21.270Z,63.93
2022-08-05T06:29:42.778Z,63.93
2022-08-05T06:30:21.101Z,64.32
2022-08-05T06:31:22.034Z,63.93
2022-08-05T06:33:19.392Z,63.93
2022-08-05T06:34:19.900Z,64.23
2022-08-05T06:36:03.194Z,63.93
2022-08-05T06:36:18.351Z,64.03
2022-08-05T06:37:18.324Z,64.03
2022-08-05T06:38:18.347Z,64.13
2022-08-05T06:39:18.453Z,63.93
2022-08-05T06:40:21.401Z,64.13
2022-08-05T06:41:18.457Z,64.32
2022-08-05T06:42:18.494Z,64.13
2022-08-05T06:43:58.550Z,63.93
2022-08-05T06:45:20.675Z,64.03
2022-08-05T06:46:18.644Z,63.93
2022-08-05T06:47:30.047Z,64.32
2022-08-05T06:48:47.007Z,64.23
2022-08-05T06:49:18.929Z,64.62
2022-08-05T06:50:18.786Z,64.62
2022-08-05T06:51:23.919Z,64.42
2022-08-05T06:52:36.710Z,64.32
2022-08-05T06:54:19.388Z,64.32
2022-08-05T06:56:26.415Z,64.72
2022-08-05T06:58:03.933Z,64.32
2022-08-05T06:59:19.112Z,64.29
2022-08-05T07:00:22.484Z,64.32
2022-08-05T07:01:20.828Z,64.42
2022-08-05T07:02:19.222Z,64.62
2022-08-05T07:03:19.254Z,64.62
2022-08-05T07:04:19.374Z,64.52
2022-08-05T07:05:21.384Z,64.23
2022-08-05T07:06:20.752Z,63.93
2022-08-05T07:07:24.114Z,64.32
2022-08-05T07:08:19.439Z,64.42
2022-08-05T07:09:19.655Z,64.23
2022-08-05T07:10:19.515Z,64.13
2022-08-05T07:11:22.235Z,64.32
2022-08-05T07:12:19.584Z,64.32
2022-08-05T07:13:56.835Z,64.13
2022-08-05T07:14:20.477Z,64.32
2022-08-05T07:15:34.360Z,64.10
2022-08-05T07:17:59.397Z,63.93
2022-08-05T07:18:29.197Z,63.93
2022-08-05T07:19:44.247Z,63.93
2022-08-05T07:20:36.995Z,63.93
2022-08-05T07:21:25.949Z,64.32
2022-08-05T07:22:19.946Z,64.32
2022-08-05T07:23:26.262Z,64.23
2022-08-05T07:25:23.418Z,64.32
2022-08-05T07:26:22.844Z,64.52
2022-08-05T07:27:20.127Z,64.42
2022-08-05T07:28:20.181Z,64.52
2022-08-05T07:29:20.203Z,64.72
2022-08-05T07:30:24.260Z,64.23
2022-08-05T07:31:20.274Z,64.42
2022-08-05T07:32:26.017Z,64.52
2022-08-05T07:33:20.351Z,64.52
2022-08-05T07:34:21.536Z,64.32
2022-08-05T07:36:04.000Z,64.52
2022-08-05T07:36:21.477Z,64.42
2022-08-05T07:37:20.488Z,64.23
2022-08-05T07:39:50.342Z,64.39
2022-08-05T07:40:32.530Z,64.29
2022-08-05T07:42:12.826Z,64.42
2022-08-05T07:42:33.579Z,64.52
2022-08-05T07:43:21.221Z,64.23
2022-08-05T07:45:56.774Z,64.32
2022-08-05T07:46:24.458Z,64.49
2022-08-05T07:49:01.614Z,64.59
2022-08-05T07:49:20.925Z,64.20
2022-08-05T07:50:25.021Z,64.39
2022-08-05T07:51:23.384Z,64.42
2022-08-05T07:52:21.030Z,64.20
2022-08-05T07:53:21.070Z,64.39
2022-08-05T07:54:21.104Z,64.42
2022-08-05T07:55:44.291Z,64.49
2022-08-05T07:56:39.010Z,64.49
2022-08-05T07:57:50.483Z,64.62
2022-08-05T07:58:54.623Z,64.29
2022-08-05T07:59:21.941Z,64.29
2022-08-05T08:00:21.385Z,64.59
2022-08-05T08:01:22.098Z,64.39
2022-08-05T08:02:21.399Z,64.49
2022-08-05T08:03:21.703Z,64.59
2022-08-05T08:04:22.966Z,64.29
2022-08-05T08:05:21.506Z,64.29
2022-08-05T08:06:21.546Z,64.29
2022-08-05T08:07:22.509Z,64.49
2022-08-05T08:08:21.612Z,64.49
2022-08-05T08:09:21.649Z,64.49
2022-08-05T08:10:21.934Z,64.29
2022-08-05T08:11:27.414Z,64.20
2022-08-05T08:12:29.698Z,64.29
2022-08-05T08:13:29.409Z,64.20
2022-08-05T08:14:21.927Z,64.29
2022-08-05T08:16:33.878Z,64.29
2022-08-05T08:16:35.167Z,64.59
2022-08-05T08:17:22.243Z,64.29
2022-08-05T08:18:21.985Z,64.29
2022-08-05T08:20:10.127Z,64.59
2022-08-05T08:20:59.908Z,64.59
2022-08-05T08:21:22.091Z,64.49
2022-08-05T08:22:22.119Z,64.29
2022-08-05T08:24:03.904Z,64.29
2022-08-05T08:24:22.193Z,64.59
2022-08-05T08:25:26.861Z,64.69
2022-08-05T08:26:29.481Z,64.20
2022-08-05T08:27:22.659Z,64.49
2022-08-05T08:28:36.335Z,64.49
2022-08-05T08:30:04.595Z,64.39
2022-08-05T08:30:32.752Z,64.29
2022-08-05T08:31:22.536Z,64.29
2022-08-05T08:32:28.032Z,64.29
2022-08-05T08:33:22.550Z,64.29
2022-08-05T08:34:30.256Z,64.20
2022-08-05T08:35:22.591Z,64.20
2022-08-05T08:36:38.556Z,64.20
2022-08-05T08:37:27.897Z,64.59
2022-08-05T08:38:35.544Z,64.59
2022-08-05T08:39:22.792Z,64.29
2022-08-05T08:40:22.771Z,64.20
2022-08-05T08:41:26.019Z,64.39
2022-08-05T08:42:34.259Z,64.29
2022-08-05T08:45:23.173Z,64.39
2022-08-05T08:45:23.925Z,64.39
2022-08-05T08:45:27.165Z,64.39
2022-08-05T08:46:22.995Z,64.29
2022-08-05T08:48:06.381Z,64.39
2022-08-05T08:50:29.863Z,64.59
2022-08-05T08:51:03.933Z,64.39
2022-08-05T08:52:04.306Z,64.69
2022-08-05T08:52:23.202Z,64.59
2022-08-05T08:53:23.238Z,64.39
2022-08-05T08:54:27.174Z,64.20
2022-08-05T08:55:32.214Z,64.69
2022-08-05T08:56:23.358Z,64.49
2022-08-05T08:57:23.634Z,64.10
2022-08-05T08:58:37.061Z,63.90
2022-08-05T08:59:23.463Z,64.10
2022-08-05T09:00:23.491Z,64.10
2022-08-05T09:01:23.599Z,64.10
2022-08-05T09:02:26.647Z,64.29
2022-08-05T09:03:23.918Z,63.61
2022-08-05T09:04:23.641Z,64.00
2022-08-05T09:05:38.560Z,63.42
2022-08-05T09:06:27.876Z,63.71
2022-08-05T09:07:28.994Z,64.00
2022-08-05T09:08:26.712Z,63.90
2022-08-05T09:09:24.117Z,64.00
2022-08-05T09:10:27.709Z,64.29
2022-08-05T09:11:51.758Z,64.00
2022-08-05T09:12:27.808Z,63.90
2022-08-05T09:13:23.961Z,64.10
2022-08-05T09:14:56.315Z,63.81
2022-08-05T09:15:24.284Z,64.10
2022-08-05T09:16:24.301Z,63.51
2022-08-05T09:17:40.851Z,63.90
2022-08-05T09:18:24.178Z,63.90
2022-08-05T09:19:27.670Z,63.90
2022-08-05T09:20:37.814Z,64.10
2022-08-05T09:22:17.825Z,64.00
2022-08-05T09:22:31.038Z,63.90
2022-08-05T09:23:27.176Z,63.51
2022-08-05T09:24:24.415Z,63.71
2022-08-05T09:26:03.111Z,63.81
2022-08-05T09:26:24.583Z,63.90
2022-08-05T09:28:05.428Z,63.71
2022-08-05T09:28:31.597Z,63.81
2022-08-05T09:29:30.699Z,63.81
2022-08-05T09:30:24.574Z,63.81
2022-08-05T09:32:41.484Z,64.10
2022-08-05T09:32:41.684Z,63.81
2022-08-05T09:34:25.996Z,63.84
2022-08-05T09:35:27.283Z,63.93
2022-08-05T09:36:27.678Z,64.00
2022-08-05T09:38:17.089Z,64.03
2022-08-05T09:38:27.456Z,63.71
2022-08-05T09:39:41.571Z,63.74
2022-08-05T09:40:25.303Z,63.71
2022-08-05T09:41:24.975Z,63.51
2022-08-05T09:42:28.531Z,63.45
2022-08-05T09:43:25.050Z,63.74
2022-08-05T09:44:25.183Z,63.90
2022-08-05T09:46:06.298Z,63.64
2022-08-05T09:46:27.496Z,63.64
2022-08-05T09:48:25.234Z,63.81
2022-08-05T09:49:54.360Z,63.81
2022-08-05T09:50:37.417Z,63.71
2022-08-05T09:51:25.344Z,63.71
2022-08-05T09:52:25.959Z,63.90
2022-08-05T09:53:30.851Z,63.71
2022-08-05T09:54:28.983Z,63.84
2022-08-05T09:55:58.189Z,63.71
2022-08-05T09:57:25.555Z,63.90
2022-08-05T09:58:25.692Z,63.90
2022-08-05T09:59:27.410Z,63.51
2022-08-05T10:01:32.425Z,63.61
2022-08-05T10:02:26.159Z,63.81
2022-08-05T10:03:25.781Z,63.42
2022-08-05T10:04:29.232Z,63.45
2022-08-05T10:05:26.741Z,63.61
2022-08-05T10:06:25.881Z,63.54
2022-08-05T10:07:50.394Z,63.64
2022-08-05T10:08:37.365Z,63.35
2022-08-05T10:09:28.117Z,63.45
2022-08-05T10:10:28.270Z,63.84
2022-08-05T10:11:29.673Z,63.45
2022-08-05T10:12:33.740Z,63.35
2022-08-05T10:13:26.137Z,63.45
2022-08-05T10:14:26.813Z,63.64
2022-08-05T10:15:26.206Z,63.74
2022-08-05T10:16:26.246Z,63.45
2022-08-05T10:17:37.259Z,63.71
2022-08-05T10:18:26.319Z,63.64
2022-08-05T10:19:59.175Z,63.45
2022-08-05T10:20:26.397Z,63.54
2022-08-05T10:21:26.425Z,63.45
2022-08-05T10:22:29.856Z,63.25
2022-08-05T10:23:55.844Z,63.54
2022-08-05T10:24:27.115Z,63.25
2022-08-05T10:25:26.676Z,63.35
2022-08-05T10:26:32.345Z,62.96
2022-08-05T10:28:09.333Z,63.25
2022-08-05T10:28:29.209Z,63.35
2022-08-05T10:30:41.349Z,63.35
2022-08-05T10:31:20.053Z,63.06
2022-08-05T10:32:51.907Z,63.06
2022-08-05T10:32:54.989Z,62.96
2022-08-05T10:33:28.854Z,63.15
2022-08-05T10:34:31.050Z,62.60
2022-08-05T10:35:33.837Z,62.89
2022-08-05T10:36:27.022Z,62.89
2022-08-05T10:37:27.012Z,62.79
2022-08-05T10:39:59.194Z,62.12
2022-08-05T10:40:27.998Z,62.31
2022-08-05T10:41:27.157Z,62.02
2022-08-05T10:42:33.771Z,62.31
2022-08-05T10:43:30.932Z,62.21
2022-08-05T10:44:27.280Z,62.41
2022-08-05T10:45:39.815Z,62.02
2022-08-05T10:46:27.338Z,62.02
2022-08-05T10:47:31.182Z,61.82
2022-08-05T10:48:29.919Z,61.66
2022-08-05T10:49:33.264Z,61.76
2022-08-05T10:50:36.267Z,62.05
2022-08-05T10:51:28.758Z,62.05
2022-08-05T10:52:27.579Z,61.27
2022-08-05T10:53:27.608Z,61.56
2022-08-05T10:54:29.428Z,61.66
2022-08-05T10:55:27.670Z,61.46
2022-08-05T10:56:27.706Z,61.36
2022-08-05T10:57:31.716Z,61.56
2022-08-05T10:58:35.926Z,61.56
2022-08-05T11:00:04.210Z,61.46
2022-08-05T11:00:27.855Z,61.85
2022-08-05T11:01:28.385Z,61.85
2022-08-05T11:02:38.182Z,61.46
2022-08-05T11:03:28.018Z,61.46
2022-08-05T11:04:28.257Z,61.56
2022-08-05T11:05:31.512Z,61.56
2022-08-05T11:06:30.802Z,61.07
2022-08-05T11:07:32.870Z,61.07
2022-08-05T11:08:37.111Z,60.88
2022-08-05T11:10:29.212Z,60.97
2022-08-05T11:11:33.091Z,60.58
2022-08-05T11:12:28.298Z,60.88
2022-08-05T11:13:28.332Z,61.17
2022-08-05T11:14:57.766Z,60.97
2022-08-05T11:15:59.984Z,60.97
2022-08-05T11:16:33.714Z,60.71
2022-08-05T11:17:59.134Z,60.71
2022-08-05T11:18:29.939Z,60.78
2022-08-05T11:20:10.143Z,60.71
2022-08-05T11:20:28.592Z,61.07
2022-08-05T11:21:28.629Z,60.71
2022-08-05T11:22:28.667Z,60.71
2022-08-05T11:23:33.647Z,60.81
2022-08-05T11:24:30.225Z,60.61
2022-08-05T11:26:05.595Z,60.52
2022-08-05T11:26:32.383Z,60.22
2022-08-05T11:27:28.850Z,60.42
2022-08-05T11:28:28.903Z,60.03
2022-08-05T11:29:28.929Z,59.93
2022-08-05T11:30:29.216Z,60.22
2022-08-05T11:31:56.447Z,60.03
2022-08-05T11:32:29.035Z,60.22
2022-08-05T11:33:43.808Z,60.03
2022-08-05T11:34:29.115Z,60.13
2022-08-05T11:36:34.429Z,60.22
2022-08-05T11:38:29.693Z,60.22
2022-08-05T11:38:36.562Z,60.22
2022-08-05T11:39:29.417Z,60.22
2022-08-05T11:40:29.335Z,59.83
2022-08-05T11:41:54.435Z,59.83
2022-08-05T11:42:29.671Z,59.93
2022-08-05T11:44:06.574Z,60.03
2022-08-05T11:44:53.273Z,60.13
2022-08-05T11:46:15.386Z,59.93
2022-08-05T11:47:49.275Z,60.22
2022-08-05T11:48:29.635Z,59.83
2022-08-05T11:49:33.739Z,60.03
2022-08-05T11:50:29.745Z,60.13
2022-08-05T11:51:43.594Z,59.83
2022-08-05T11:52:31.069Z,60.22
2022-08-05T11:53:29.940Z,60.42
2022-08-05T11:54:33.106Z,60.32
2022-08-05T11:55:32.155Z,60.52
2022-08-05T11:56:40.638Z,60.22
2022-08-05T11:59:30.051Z,60.42
2022-08-05T12:00:30.441Z,59.93
2022-08-05T12:01:30.142Z,60.32
2022-08-05T12:03:32.026Z,59.93
2022-08-05T12:04:30.244Z,60.22
2022-08-05T12:06:30.314Z,60.03
2022-08-05T12:08:09.665Z,59.74
2022-08-05T12:08:31.438Z,59.93
2022-08-05T12:09:52.873Z,59.64
2022-08-05T12:10:42.926Z,60.32
2022-08-05T12:11:40.128Z,60.32
2022-08-05T12:12:30.550Z,60.13
2022-08-05T12:13:48.454Z,60.03
2022-08-05T12:14:30.609Z,60.13
2022-08-05T12:15:38.041Z,60.13
2022-08-05T12:16:30.786Z,60.61
2022-08-05T12:17:57.862Z,60.03
2022-08-05T12:18:33.050Z,60.13
2022-08-05T12:20:17.204Z,60.25
2022-08-05T12:20:33.260Z,59.86
2022-08-05T12:21:30.887Z,59.83
2022-08-05T12:22:30.917Z,59.96
2022-08-05T12:23:30.953Z,59.86
2022-08-05T12:24:31.231Z,59.86
2022-08-05T12:25:31.023Z,59.77
2022-08-05T12:26:31.055Z,59.57
2022-08-05T12:27:32.681Z,59.57
2022-08-05T12:28:31.128Z,59.57
2022-08-05T12:29:38.017Z,59.47
2022-08-05T12:30:32.224Z,59.38
2022-08-05T12:31:42.387Z,59.38
2022-08-05T12:32:31.278Z,59.57
2022-08-05T12:33:36.313Z,59.47
2022-08-05T12:34:31.493Z,59.47
2022-08-05T12:36:31.474Z,59.18
2022-08-05T12:37:31.925Z,59.38
2022-08-05T12:38:31.761Z,59.28
2022-08-05T12:39:37.460Z,59.18
2022-08-05T12:40:31.584Z,59.28
2022-08-05T12:41:34.541Z,59.18
2022-08-05T12:42:31.658Z,59.08
2022-08-05T12:43:32.293Z,59.38
2022-08-05T12:44:33.789Z,59.38
2022-08-05T12:45:49.573Z,59.38
2022-08-05T12:46:31.810Z,59.38
2022-08-05T12:47:31.936Z,59.38
2022-08-05T12:48:33.012Z,59.08
2022-08-05T12:50:03.869Z,59.38
2022-08-05T12:50:31.959Z,59.38
2022-08-05T12:52:13.675Z,59.18
2022-08-05T12:52:38.689Z,59.18
2022-08-05T12:53:36.966Z,59.38
2022-08-05T12:54:32.114Z,59.38
2022-08-05T12:55:32.813Z,59.57
2022-08-05T12:56:34.888Z,59.08
2022-08-05T12:57:32.228Z,59.08
2022-08-05T12:58:49.930Z,58.98
2022-08-05T13:00:08.273Z,58.69
2022-08-05T13:02:02.843Z,59.08
2022-08-05T13:03:33.146Z,59.01
2022-08-05T13:04:32.492Z,59.08
2022-08-05T13:05:37.426Z,59.20
2022-08-05T13:06:32.565Z,59.01
2022-08-05T13:07:57.241Z,58.81
2022-08-05T13:08:32.815Z,59.01
2022-08-05T13:09:32.678Z,58.33
2022-08-05T13:10:32.718Z,58.52
2022-08-05T13:12:01.255Z,58.62
2022-08-05T13:12:32.803Z,58.62
2022-08-05T13:14:04.539Z,58.42
2022-08-05T13:14:36.619Z,58.13
2022-08-05T13:15:42.236Z,58.13
2022-08-05T13:16:32.947Z,58.72
2022-08-05T13:17:41.334Z,58.52
2022-08-05T13:18:33.319Z,58.52
2022-08-05T13:19:40.424Z,58.23
2022-08-05T13:20:33.093Z,58.42
2022-08-05T13:21:38.102Z,58.42
2022-08-05T13:22:33.175Z,58.42
2022-08-05T13:23:33.215Z,58.52
2022-08-05T13:24:51.358Z,58.62
2022-08-05T13:25:51.854Z,58.33
2022-08-05T13:26:33.322Z,58.23
2022-08-05T13:27:36.351Z,58.03
2022-08-05T13:28:33.401Z,57.84
2022-08-05T13:29:37.493Z,57.84
2022-08-05T13:30:37.051Z,57.97
2022-08-05T13:32:03.766Z,58.16
2022-08-05T13:32:39.408Z,57.77
2022-08-05T13:34:21.985Z,57.77
2022-08-05T13:35:42.943Z,57.57
2022-08-05T13:36:33.702Z,58.06
2022-08-05T13:38:36.085Z,57.57
2022-08-05T13:40:16.048Z,57.67
2022-08-05T13:40:47.885Z,57.77
2022-08-05T13:41:35.995Z,57.48
2022-08-05T13:42:33.959Z,57.97
2022-08-05T13:43:45.266Z,57.28
2022-08-05T13:44:34.821Z,57.38
2022-08-05T13:45:38.686Z,57.28
2022-08-05T13:47:36.089Z,57.38
2022-08-05T13:48:57.740Z,57.38
2022-08-05T13:49:35.447Z,57.67
2022-08-05T13:50:34.234Z,57.57
2022-08-05T13:51:36.673Z,57.87